• Join FlightAware (Why Join?)
  • Login
  • US Flag 
08:46AM EDT


 

Airport Tracker/Info


-or-


 

Live Flight TrackerFlight Track Log ✈ RPA3396 ✈ 04-Jun-2013 ✈ KDCA - KALB

Flight Track Log - Related Links

Times and Time Zones

All times are in EDT time to prevent confusion due to time zone crossing. See the RPA3396 flight status page for this flight to view local times or setup timezone preferences in your user account.

Time Position Orientation Groundspeed Altitude Reporting Facility
EDT Latitude Longitude Course Direction KTS MPH feet Rate Location/Type
03:23PM 38.8667 -77.0500 61° Northeast 161 185 900  Level Potomac TRACON
03:26PM 38.9657 -76.6861 67° East  Level FlightAware Approximate
03:26PM 38.9575 -77.1506 319° Northwest 202 232 4,700  Level Washington Center
03:27PM 39.0138 -76.5724 57° Northeast  Level FlightAware Approximate
03:27PM 39.0222 -77.1467 North 223 257 8,000  Level Washington Center
03:28PM 39.0578 -76.4556 63° Northeast  Level FlightAware Approximate
03:28PM 39.0400 -77.0453 77° East 171 197 10,600  Level Washington Center
03:29PM 39.1061 -76.3414 61° Northeast  Level FlightAware Approximate
03:29PM 39.0539 -76.9228 82° East 253 291 12,400  Level Washington Center
03:30PM 39.0719 -76.7947 80° East 299 344 14,700 2,280 Climbing Washington Center
03:31PM 39.0878 -76.6667 81° East 345 397 16,900 1,980 Climbing Washington Center
03:32PM 39.1056 -76.5331 80° East 371 427 18,700 1,800 Climbing Washington Center
03:33PM 39.1233 -76.3889 81° East 386 444 20,600 1,860 Climbing Washington Center
03:34PM 39.1408 -76.2447 81° East 396 456 22,500 1,200 Climbing Washington Center
03:35PM 39.1686 -76.0789 78° East 412 474 23,000 480 Climbing Washington Center
03:36PM 39.1881 -75.9208 81° East 432 497 23,500 960 Climbing Washington Center
03:37PM 39.2611 -75.7928 54° Northeast 415 478 25,000 1,380 Climbing Washington Center
03:38PM 39.3489 -75.6800 45° Northeast 425 489 26,300 1,320 Climbing Washington Center
03:39PM 39.4364 -75.5672 45° Northeast 430 495 27,700 1,200 Climbing Washington Center
03:40PM 39.5258 -75.4517 45° Northeast 442 509 28,700 600 Climbing Washington Center
03:41PM 39.6133 -75.3331 46° Northeast 447 514 29,000 60 Climbing Washington Center
03:43PM 39.7994 -75.0725 47° Northeast 469 540 29,000  Level New York Center
03:44PM 39.8853 -74.9506 47° Northeast 463 533 29,000  Level New York Center
03:45PM 39.9794 -74.8181 47° Northeast 469 540 29,000  Level New York Center
03:46PM 40.0650 -74.6928 48° Northeast 454 522 29,000  Level New York Center
03:47PM 40.1503 -74.5728 47° Northeast 454 522 29,000  Level New York Center
03:48PM 40.2308 -74.4631 46° Northeast 454 522 29,000  Level New York Center
03:49PM 40.3300 -74.3594 39° Northeast 454 522 29,000  Level New York Center
03:50PM 40.4269 -74.2553 39° Northeast 449 517 29,000  Level New York Center
03:51PM 40.5258 -74.1511 39° Northeast 449 517 29,000 -60 Level New York Center
03:52PM 40.6203 -74.0464 40° Northeast 449 517 28,900 -1,020 Descending New York Center
03:54PM 40.8014 -73.8547 39° Northeast 416 479 26,200 -1,680 Descending Boston Center
03:55PM 40.8881 -73.7497 42° Northeast 411 473 24,200 -1,140 Descending Boston Center
03:56PM 40.9664 -73.6442 45° Northeast 406 467 24,000 -480 Descending Boston Center
03:57PM 41.0508 -73.5464 41° Northeast 401 461 23,300 -900 Descending Boston Center
03:58PM 41.1350 -73.4461 42° Northeast 395 455 22,300 -1,020 Descending Boston Center
03:59PM 41.2150 -73.3453 43° Northeast 395 455 21,300 -1,020 Descending Boston Center
04:00PM 41.2969 -73.2553 40° Northeast 390 449 20,300 -1,020 Descending Boston Center
04:01PM 41.3931 -73.2536 North 340 391 19,300 -1,140 Descending Boston Center
04:02PM 41.4906 -73.2964 342° North 321 369 18,100 -660 Descending Boston Center
04:03PM 41.5800 -73.3281 345° North 328 377 18,000 -180 Descending Boston Center
04:04PM 41.6653 -73.3572 346° North 320 368 17,800 -660 Descending Boston Center
04:05PM 41.7253 -73.3831 342° North 320 368 16,700 -1,500 Descending Boston Center
04:06PM 41.8375 -73.4236 345° North 320 368 14,900 -1,740 Descending Boston Center
04:06PM 41.8686 -73.4353 344° North 323 372 14,300 -1,740 Descending Boston Center
04:07PM 41.9206 -73.4556 344° North 314 361 13,200 -1,560 Descending Boston Center
04:07PM 41.9622 -73.4731 343° North 304 350 12,600 -1,320 Descending Boston Center
04:08PM 42.0017 -73.4850 347° North 303 349 11,900 -1,500 Descending Boston Center
04:08PM 42.0431 -73.5053 340° North 297 342 11,100 -900 Descending Boston Center
04:09PM 42.0806 -73.5197 344° North 295 339 11,000 -120 Descending Boston Center
04:09PM 42.1283 -73.5347 347° North 296 341 11,000  Level Boston Center
04:10PM 42.1594 -73.5519 338° Northwest 295 339 11,000  Level Boston Center
04:10PM 42.2008 -73.5694 343° North 297 342 11,000 -540 Level Boston Center
04:11PM 42.2361 -73.5842 343° North 295 339 10,500 -1,380 Descending Boston Center
04:11PM 42.2714 -73.5989 343° North 270 311 9,600 -1,620 Descending Boston Center
04:12PM 42.3067 -73.6136 343° North 277 319 8,900 -1,740 Descending Boston Center
04:12PM 42.3442 -73.6311 341° North 255 293 7,900 -1,500 Descending Boston Center
04:13PM 42.3669 -73.6372 349° North 258 297 7,400 -1,620 Descending Boston Center
04:13PM 42.4128 -73.6492 349° North 247 284 6,300 -1,800 Descending Boston Center
04:14PM 42.4397 -73.6611 342° North 244 281 5,600 -1,800 Descending Boston Center
04:14PM 42.4811 -73.6789 342° North 246 283 4,500 -1,620 Descending Boston Center
04:15PM 42.5019 -73.6792 359° North 244 281 4,000 -1,200 Descending Boston Center
04:15PM 42.5519 -73.6972 345° North 244 281 3,200 -1,020 Descending Boston Center
04:16PM 42.5706 -73.7003 353° North 239 275 3,000 -240 Descending Boston Center
04:16PM 42.6100 -73.7153 344° North 208 239 3,000  Level Boston Center
04:17PM 42.6206 -73.7125 11° North 217 250 3,000 -180 Level Boston Center
04:18PM 42.6789 -73.7139 359° North 192 221 2,800 -240 Descending Boston Center